Time;durP1;ratioP1;P1;durP2;ratioP2;P2;SDS_P1;SDS_P2;PMS_P1;PMS_P2;Temp;Humidity;BMP_temperature;BMP_pressure;BME280_temperature;BME280_humidity;BME280_pressure;Samples;Min_cycle;Max_cycle;Signal;HPM_P1;HPM_P2
2023/07/09 07:34:55;;;;;;;;;;;;;;;;;;;;;
2023/07/09 13:09:23;;;;;;;19.90;17.90;;;;;;;29.52;60.34;101645.00;5286132;23;20060;-67
2023/07/09 13:11:48;;;;;;;20.80;18.80;;;;;;;29.30;59.92;101659.34;4910645;29;20490;-60
2023/07/09 13:14:23;;;;;;;21.17;19.00;;;;;;;29.03;61.35;101661.31;4912353;29;20035;-66
2023/07/09 13:16:49;;;;;;;20.92;18.90;;;;;;;28.85;62.13;101654.91;4909312;29;20371;-63
2023/07/09 13:19:15;;;;;;;19.35;17.42;;;;;;;28.72;63.56;101656.31;4911199;29;20036;-63
2023/07/09 13:21:42;;;;;;;18.23;16.33;;;;;;;28.64;63.96;101651.28;4913208;29;20382;-63
2023/07/09 13:24:29;;;;;;;21.95;19.85;;;;;;;28.59;62.92;101635.34;4911003;29;20032;-63
2023/07/09 13:26:54;;;;;;;18.92;17.02;;;;;;;28.49;64.18;101635.75;4913022;29;20051;-63
2023/07/09 13:29:21;;;;;;;18.73;16.83;;;;;;;28.38;63.35;101633.50;4895985;29;20504;-63
2023/07/09 13:31:47;;;;;;;20.02;18.02;;;;;;;28.27;63.12;101629.44;4905652;29;20035;-63
2023/07/09 13:34:22;;;;;;;19.15;17.20;;;;;;;28.17;62.16;101636.06;4907371;29;20028;-63
2023/07/09 13:36:48;;;;;;;17.98;15.77;;;;;;;28.01;62.15;101638.44;4908141;29;20042;-63
2023/07/09 13:39:15;;;;;;;18.20;16.25;;;;;;;27.91;62.27;101636.97;4911942;29;20442;-63
2023/07/09 13:41:43;;;;;;;20.23;16.20;;;;;;;27.81;63.01;101640.91;4913037;29;20024;-63
2023/07/09 13:44:13;;;;;;;18.58;16.40;;;;;;;27.70;63.16;101650.22;4912791;29;20397;-63
2023/07/09 13:46:38;;;;;;;16.90;15.20;;;;;;;27.67;63.50;101661.03;4912864;29;20508;-63
2023/07/09 13:49:08;;;;;;;17.95;14.70;;;;;;;27.64;63.35;101689.75;4911890;29;20119;-62
2023/07/09 13:51:34;;;;;;;17.85;16.15;;;;;;;27.55;63.46;101729.28;4908775;29;20368;-61
2023/07/09 13:54:02;;;;;;;16.27;13.73;;;;;;;27.39;65.37;101761.03;4911762;29;20039;-61
2023/07/09 13:56:27;;;;;;;16.60;13.07;;;;;;;27.34;64.72;101779.03;4915141;29;20031;-60
2023/07/09 13:58:53;;;;;;;13.48;11.55;;;;;;;27.10;66.79;101778.00;4914804;29;20040;-60
2023/07/09 14:01:21;;;;;;;12.00;10.80;;;;;;;26.91;67.65;101785.72;4915032;29;20043;-60
2023/07/09 14:03:46;;;;;;;11.73;10.05;;;;;;;26.54;69.32;101776.91;4915458;29;20075;-60
2023/07/09 14:06:14;;;;;;;12.18;10.13;;;;;;;26.04;71.57;101771.16;4914704;29;20058;-60
2023/07/09 14:08:42;;;;;;;11.63;9.00;;;;;;;25.61;73.47;101769.56;4915002;29;20043;-60
2023/07/09 14:11:15;;;;;;;13.13;8.52;;;;;;;25.23;75.89;101789.97;4910921;29;20127;-60
2023/07/09 14:13:41;;;;;;;10.00;8.90;;;;;;;24.88;78.54;101823.63;4909462;29;20405;-60
2023/07/09 14:16:15;;;;;;;10.23;8.88;;;;;;;24.76;78.35;101830.09;4911957;29;20482;-60
2023/07/09 14:18:40;;;;;;;10.63;9.32;;;;;;;24.39;81.00;101828.97;4911338;29;20036;-60
2023/07/09 14:21:14;;;;;;;12.85;9.20;;;;;;;24.31;82.53;101817.59;4891579;29;20039;-59
2023/07/09 14:23:39;;;;;;;11.10;8.40;;;;;;;24.37;86.36;101813.94;4907243;29;20047;-59
2023/07/09 14:26:04;;;;;;;12.68;9.32;;;;;;;24.57;89.39;101803.75;4908221;29;20031;-59
2023/07/09 14:28:30;;;;;;;8.67;7.33;;;;;;;24.81;86.88;101796.25;4911814;29;20031;-60
2023/07/09 14:30:56;;;;;;;12.05;7.13;;;;;;;25.01;84.57;101777.13;4911239;29;20284;-60
2023/07/09 14:33:21;;;;;;;10.25;7.30;;;;;;;25.13;84.03;101760.84;4912458;29;20034;-60
2023/07/09 14:35:48;;;;;;;9.35;6.68;;;;;;;25.27;84.98;101757.00;4907424;29;20043;-60
2023/07/09 14:38:22;;;;;;;8.90;6.55;;;;;;;25.34;83.07;101754.16;4909873;29;20028;-60
2023/07/09 14:40:51;;;;;;;9.07;6.50;;;;;;;25.36;83.45;101755.94;4905174;29;20036;-60
2023/07/09 14:43:17;;;;;;;8.82;6.95;;;;;;;25.30;79.91;101778.25;4911053;29;20052;-60
2023/07/09 14:45:42;;;;;;;8.88;7.38;;;;;;;25.15;82.28;101775.03;4909978;29;20119;-60
2023/07/09 14:48:12;;;;;;;8.48;6.70;;;;;;;25.01;80.63;101774.44;4904740;29;20028;-60
2023/07/09 14:50:39;;;;;;;9.90;6.88;;;;;;;24.95;81.58;101777.25;4910696;29;20031;-60
2023/07/09 14:53:13;;;;;;;9.68;7.35;;;;;;;24.94;81.04;101783.50;4907372;29;20021;-60
2023/07/09 14:55:38;;;;;;;8.43;7.30;;;;;;;24.84;81.70;101766.84;4904271;29;20450;-60
2023/07/09 14:58:13;;;;;;;9.57;7.32;;;;;;;24.79;81.89;101769.59;4897922;29;20063;-60
2023/07/09 15:00:40;;;;;;;11.93;7.60;;;;;;;24.76;80.89;101758.97;4913097;29;20031;-60
2023/07/09 15:03:09;;;;;;;10.68;7.20;;;;;;;24.69;81.97;101757.34;4913184;29;20103;-60
2023/07/09 15:05:35;;;;;;;10.07;8.20;;;;;;;24.63;82.62;101744.16;4914286;29;20035;-60
2023/07/09 15:08:06;;;;;;;9.43;7.22;;;;;;;24.64;81.09;101746.81;4907350;29;20039;-60
2023/07/09 15:10:31;;;;;;;10.23;7.35;;;;;;;24.63;81.96;101745.03;4914348;29;20054;-60
2023/07/09 15:12:56;;;;;;;10.73;6.50;;;;;;;24.67;81.05;101753.88;4909060;29;20483;-60
2023/07/09 15:15:26;;;;;;;10.38;6.18;;;;;;;24.68;81.48;101744.97;4914351;29;20371;-60
2023/07/09 15:17:51;;;;;;;9.75;6.35;;;;;;;24.80;80.79;101750.03;4911634;29;20442;-60
2023/07/09 15:20:19;;;;;;;9.38;5.80;;;;;;;24.90;80.96;101764.03;4914574;29;20020;-60
2023/07/09 15:22:46;;;;;;;9.55;6.18;;;;;;;24.98;80.34;101755.84;4911725;29;20506;-60
2023/07/09 15:25:33;;;;;;;8.30;5.65;;;;;;;25.01;79.19;101766.44;4910388;29;20501;-60
2023/07/09 15:27:58;;;;;;;9.27;5.78;;;;;;;25.02;78.28;101762.88;4909460;29;20068;-60
2023/07/09 15:30:26;;;;;;;7.90;5.60;;;;;;;24.94;81.04;101759.50;4914696;29;20024;-60
2023/07/09 15:32:54;;;;;;;9.65;6.40;;;;;;;24.87;80.00;101764.09;4913272;29;20039;-60
2023/07/09 15:35:19;;;;;;;9.88;5.88;;;;;;;24.99;79.58;101757.63;4913393;29;20127;-60
2023/07/09 15:37:48;;;;;;;7.43;5.78;;;;;;;25.14;80.00;101756.38;4914529;29;20114;-60
2023/07/09 15:40:24;;;;;;;10.10;5.82;;;;;;;25.23;79.56;101750.88;4912333;29;20032;-61
2023/07/09 15:42:53;;;;;;;8.38;6.30;;;;;;;25.31;80.35;101750.72;4911528;29;20032;-61
2023/07/09 15:45:19;;;;;;;7.80;6.00;;;;;;;25.44;78.01;101754.81;4913812;29;20032;-60
2023/07/09 15:47:46;;;;;;;10.48;6.72;;;;;;;25.48;77.43;101763.66;4914531;29;20500;-60
2023/07/09 15:50:19;;;;;;;8.70;5.95;;;;;;;25.47;75.54;101760.09;4912029;29;20036;-60
2023/07/09 15:52:46;;;;;;;9.15;6.20;;;;;;;25.49;77.81;101760.03;4910809;29;20020;-60
2023/07/09 15:55:19;;;;;;;9.38;6.32;;;;;;;25.34;77.82;101763.97;4913036;29;20027;-61
2023/07/09 15:57:46;;;;;;;9.60;6.15;;;;;;;25.38;78.51;101754.13;4910993;29;20036;-60
2023/07/09 16:00:19;;;;;;;8.68;6.88;;;;;;;25.52;78.47;101750.19;4911876;29;20039;-60
2023/07/09 16:02:45;;;;;;;11.60;8.15;;;;;;;25.65;77.28;101742.75;4914275;29;20357;-60
2023/07/09 16:05:28;;;;;;;11.40;7.00;;;;;;;25.85;76.82;101738.69;4910198;29;20083;-60
2023/07/09 16:07:55;;;;;;;8.88;5.95;;;;;;;26.08;79.39;101739.91;4913617;29;20079;-60
2023/07/09 16:10:23;;;;;;;8.15;5.93;;;;;;;26.22;77.22;101736.88;4913816;29;20418;-60
2023/07/09 16:12:50;;;;;;;11.00;6.53;;;;;;;26.32;76.06;101733.88;4908715;29;20481;-61
2023/07/09 16:15:17;;;;;;;10.10;6.00;;;;;;;26.37;75.79;101729.31;4911790;29;20327;-61
2023/07/09 16:17:47;;;;;;;8.43;6.40;;;;;;;26.22;74.67;101727.06;4912225;29;20510;-61
2023/07/09 16:20:18;;;;;;;9.88;6.43;;;;;;;26.31;74.32;101724.09;4911938;29;20435;-61
2023/07/09 16:22:48;;;;;;;8.40;5.65;;;;;;;26.45;74.68;101721.06;4912325;29;20024;-61
2023/07/09 16:25:19;;;;;;;8.90;5.47;;;;;;;26.49;72.83;101721.81;4905719;29;20033;-61
2023/07/09 16:27:44;;;;;;;8.45;6.03;;;;;;;26.46;73.95;101724.59;4909354;29;20509;-61
2023/07/09 16:30:18;;;;;;;8.68;6.00;;;;;;;26.46;72.27;101722.81;4907786;29;20040;-61
2023/07/09 16:32:44;;;;;;;8.85;5.90;;;;;;;26.48;70.57;101720.97;4909701;29;20545;-61
2023/07/09 16:35:22;;;;;;;9.88;6.15;;;;;;;26.47;71.88;101719.19;4912630;29;20032;-62
2023/07/09 16:37:49;;;;;;;9.80;5.82;;;;;;;26.43;72.48;101725.56;4913617;29;20028;-62
2023/07/09 16:40:21;;;;;;;9.25;6.05;;;;;;;26.32;71.08;101719.66;4914258;29;20483;-61
2023/07/09 16:42:48;;;;;;;11.48;5.97;;;;;;;26.38;71.83;101724.81;4904125;29;20013;-61
2023/07/09 16:45:16;;;;;;;8.82;6.25;;;;;;;26.41;73.68;101732.75;4913009;29;20032;-62
2023/07/09 16:47:43;;;;;;;9.80;6.80;;;;;;;26.36;71.99;101740.91;4905665;29;20076;-61
2023/07/09 16:50:22;;;;;;;12.70;6.95;;;;;;;26.29;74.93;101728.63;4909454;29;20024;-63
2023/07/09 16:52:49;;;;;;;9.00;6.00;;;;;;;26.29;74.16;101733.13;4909340;29;20032;-61
2023/07/09 16:55:20;;;;;;;12.45;7.15;;;;;;;26.27;73.98;101740.28;4912363;29;20028;-61
2023/07/09 16:57:55;;;;;;;10.52;6.15;;;;;;;26.32;74.26;101754.41;4908796;29;20038;-61
2023/07/09 17:00:25;;;;;;;10.50;6.68;;;;;;;26.30;73.65;101749.09;4909223;29;20040;-62
2023/07/09 17:02:50;;;;;;;12.23;7.43;;;;;;;26.21;73.52;101752.00;4901525;29;20054;-61
2023/07/09 17:05:15;;;;;;;10.40;6.90;;;;;;;26.07;75.03;101749.72;4914112;29;20067;-61
2023/07/09 17:07:41;;;;;;;9.32;6.57;;;;;;;25.88;73.64;101748.41;4913852;29;20111;-61
2023/07/09 17:10:07;;;;;;;10.32;6.68;;;;;;;25.79;75.16;101761.06;4908989;29;20048;-62
2023/07/09 17:12:33;;;;;;;11.55;6.43;;;;;;;25.79;77.65;101750.41;4912746;29;20039;-61
2023/07/09 17:15:00;;;;;;;10.77;6.28;;;;;;;25.81;75.89;101759.25;4910836;29;20090;-62
2023/07/09 17:17:27;;;;;;;8.23;6.35;;;;;;;25.71;75.52;101767.53;4886821;29;20107;-62
2023/07/09 17:19:55;;;;;;;10.48;6.13;;;;;;;25.44;75.82;101765.50;4908312;29;20099;-62
2023/07/09 17:22:21;;;;;;;;;;;;;;;25.44;75.18;101768.16;4906134;29;20034;-61
2023/07/09 17:24:46;;;;;;;11.17;6.60;;;;;;;25.38;75.93;101771.00;4902673;29;19910;-61
2023/07/09 17:27:12;;;;;;;12.10;6.10;;;;;;;25.39;77.25;101767.41;4908598;29;20099;-62
2023/07/09 17:29:39;;;;;;;11.07;6.15;;;;;;;25.41;78.32;101767.38;4917068;29;20028;-61
2023/07/09 17:32:05;;;;;;;9.70;5.75;;;;;;;25.43;76.53;101768.22;4908224;29;20032;-61
2023/07/09 17:34:31;;;;;;;9.98;6.25;;;;;;;25.37;76.70;101766.56;4908160;29;20036;-61
2023/07/09 17:36:57;;;;;;;8.95;6.55;;;;;;;25.32;76.44;101771.16;4917552;29;20443;-62
2023/07/09 17:39:23;;;;;;;10.35;6.13;;;;;;;25.25;75.27;101774.84;4915489;29;20056;-62
2023/07/09 17:41:50;;;;;;;11.35;6.50;;;;;;;25.10;76.81;101774.28;4915731;29;20024;-62
2023/07/09 17:44:18;;;;;;;10.75;6.53;;;;;;;25.08;77.31;101767.22;4915879;29;20091;-61
2023/07/09 17:46:44;;;;;;;11.15;7.18;;;;;;;25.11;75.30;101778.66;4917223;29;20060;-62
2023/07/09 17:49:18;;;;;;;9.38;6.68;;;;;;;25.01;77.59;101785.13;4900161;29;20432;-61
2023/07/09 17:51:43;;;;;;;10.57;6.13;;;;;;;25.02;75.22;101786.88;4917065;29;20039;-62
2023/07/09 17:54:16;;;;;;;7.85;5.97;;;;;;;24.93;76.03;101795.09;4915516;29;20040;-62
2023/07/09 17:56:43;;;;;;;8.90;5.65;;;;;;;24.88;75.69;101792.50;4910722;29;20079;-62
2023/07/09 17:59:18;;;;;;;8.40;5.70;;;;;;;24.86;74.71;101804.13;4906094;29;20043;-63
2023/07/09 18:01:49;;;;;;;9.48;5.68;;;;;;;24.78;75.28;101802.50;4907333;29;20056;-62
2023/07/09 18:04:17;;;;;;;7.63;5.65;;;;;;;24.69;75.94;101807.13;4916190;29;20020;-62
2023/07/09 18:06:48;;;;;;;8.45;6.03;;;;;;;24.68;75.69;101816.03;4907971;29;20028;-62
2023/07/09 18:09:15;;;;;;;9.00;6.18;;;;;;;24.60;75.06;101809.06;4912057;29;20063;-62
2023/07/09 18:11:41;;;;;;;9.90;6.60;;;;;;;24.43;75.87;101814.72;4917626;29;20035;-62
2023/07/09 18:14:27;;;;;;;8.90;6.25;;;;;;;24.28;77.58;101825.63;4916865;29;20032;-62
2023/07/09 18:16:53;;;;;;;7.28;5.18;;;;;;;24.23;77.61;101831.06;4917237;29;20096;-62
2023/07/09 18:19:24;;;;;;;9.85;5.75;;;;;;;24.20;77.69;101835.53;4917753;29;20514;-62
2023/07/09 18:21:50;;;;;;;9.27;5.40;;;;;;;24.14;77.31;101847.16;4919873;29;20107;-63
2023/07/09 18:24:16;;;;;;;8.50;5.80;;;;;;;24.03;77.48;101831.38;4913774;29;20119;-62
2023/07/09 18:26:41;;;;;;;9.35;6.10;;;;;;;23.86;77.64;101831.66;4914935;29;20032;-62
2023/07/09 18:29:20;;;;;;;9.98;6.07;;;;;;;23.70;78.88;101836.31;4914555;29;20039;-62
2023/07/09 18:31:46;;;;;;;8.65;6.10;;;;;;;23.64;79.35;101831.09;4915253;29;20040;-62
2023/07/09 18:34:11;;;;;;;10.33;6.37;;;;;;;23.57;79.32;101845.38;4909639;29;20043;-62
2023/07/09 18:36:36;;;;;;;11.87;6.87;;;;;;;23.45;79.79;101838.47;4912817;29;20326;-61
2023/07/09 18:39:02;;;;;;;9.52;6.35;;;;;;;23.29;79.89;101847.53;4915590;29;20658;-61
2023/07/09 18:41:28;;;;;;;9.40;5.93;;;;;;;23.13;80.96;101849.53;4914254;29;20035;-62
2023/07/09 18:43:53;;;;;;;7.80;5.60;;;;;;;23.09;80.41;101848.66;4915518;29;20071;-61
2023/07/09 18:46:18;;;;;;;9.05;5.25;;;;;;;23.01;80.98;101850.53;4914680;29;20115;-61
2023/07/09 18:48:44;;;;;;;11.57;6.55;;;;;;;22.92;81.82;101849.72;4914348;29;20494;-62
2023/07/09 18:51:11;;;;;;;8.23;6.07;;;;;;;22.91;81.69;101847.09;4916776;29;20142;-61
2023/07/09 18:53:37;;;;;;;9.35;6.40;;;;;;;22.87;82.48;101840.94;4918416;29;20292;-62
2023/07/09 18:56:02;;;;;;;10.65;6.65;;;;;;;22.79;82.77;101853.44;4914565;29;20031;-62
2023/07/09 18:58:29;;;;;;;9.50;6.53;;;;;;;22.72;82.78;101841.13;4912421;29;20032;-61
2023/07/09 19:00:57;;;;;;;9.60;6.50;;;;;;;22.59;83.21;101837.72;4915077;29;20095;-62
2023/07/09 19:03:35;;;;;;;8.43;6.60;;;;;;;22.48;83.73;101831.63;4893218;29;20036;-61
2023/07/09 19:06:00;;;;;;;9.32;6.15;;;;;;;22.41;83.98;101820.19;4909318;29;20047;-61
2023/07/09 19:08:28;;;;;;;8.20;6.38;;;;;;;22.38;83.58;101826.41;4917174;29;20060;-61
2023/07/09 19:10:54;;;;;;;8.73;7.25;;;;;;;22.37;83.33;101821.13;4915021;29;20672;-61
2023/07/09 19:13:21;;;;;;;9.35;7.35;;;;;;;22.35;82.93;101817.63;4912167;29;20290;-61
2023/07/09 19:15:48;;;;;;;9.43;7.60;;;;;;;22.30;83.48;101824.69;4912509;29;20086;-61
2023/07/09 19:18:21;;;;;;;8.88;6.85;;;;;;;22.23;84.21;101821.22;4914793;29;20491;-61
2023/07/09 19:20:46;;;;;;;10.38;7.47;;;;;;;22.16;84.85;101815.09;4915107;29;20087;-61
2023/07/09 19:23:17;;;;;;;9.40;7.60;;;;;;;22.09;85.17;101826.66;4912638;29;20025;-61
2023/07/09 19:25:42;;;;;;;9.80;7.22;;;;;;;22.04;85.34;101833.75;4913855;29;20488;-61
2023/07/09 19:28:08;;;;;;;12.25;7.75;;;;;;;21.99;86.44;101817.88;4914663;29;20024;-61
2023/07/09 19:30:33;;;;;;;9.48;7.60;;;;;;;21.97;86.32;101827.66;4912834;29;20063;-61
2023/07/09 19:33:00;;;;;;;9.75;7.25;;;;;;;22.00;86.14;101824.06;4913461;29;20394;-61
2023/07/09 19:35:27;;;;;;;9.93;7.72;;;;;;;21.97;86.36;101817.03;4913483;29;20075;-61
2023/07/09 19:37:53;;;;;;;11.30;8.10;;;;;;;21.99;86.55;101820.53;4914549;29;20075;-61
2023/07/09 19:40:27;;;;;;;9.43;7.97;;;;;;;21.98;86.49;101831.19;4913579;29;20569;-61
2023/07/09 19:42:54;;;;;;;9.68;8.23;;;;;;;21.95;87.01;101837.38;4906624;29;20372;-61
2023/07/09 19:45:22;;;;;;;11.90;8.30;;;;;;;21.92;86.65;101833.88;4913828;29;20500;-61
2023/07/09 19:47:50;;;;;;;10.40;7.43;;;;;;;21.88;86.99;101838.31;4913946;29;20083;-61
2023/07/09 19:50:26;;;;;;;10.50;7.85;;;;;;;21.85;86.96;101849.81;4900835;29;20215;-61
2023/07/09 19:52:53;;;;;;;10.68;8.55;;;;;;;21.80;87.59;101845.47;4908651;29;20033;-61
2023/07/09 19:55:33;;;;;;;11.20;8.65;;;;;;;21.75;87.57;101849.91;4912710;29;20419;-61
2023/07/09 19:58:03;;;;;;;11.70;8.18;;;;;;;21.67;87.71;101858.81;4913206;29;20612;-61
2023/07/09 20:00:29;;;;;;;12.10;8.18;;;;;;;21.59;88.08;101863.28;4902658;29;20032;-61
2023/07/09 20:02:56;;;;;;;9.73;7.63;;;;;;;21.54;88.62;101870.38;4913405;29;20028;-61
2023/07/09 20:05:24;;;;;;;11.50;8.55;;;;;;;21.51;89.39;101862.44;4909276;29;20495;-61
2023/07/09 20:07:57;;;;;;;11.63;8.77;;;;;;;21.47;88.70;101873.94;4909299;29;20426;-60
2023/07/09 20:10:23;;;;;;;13.02;8.48;;;;;;;21.45;89.87;101868.63;4908695;29;20055;-61
2023/07/09 20:12:50;;;;;;;13.30;8.93;;;;;;;21.44;89.10;101864.22;4916208;29;20435;-61
2023/07/09 20:15:22;;;;;;;12.35;9.65;;;;;;;21.41;89.40;101880.16;4913872;29;20063;-61
2023/07/09 20:17:48;;;;;;;13.57;9.27;;;;;;;21.38;89.55;101877.50;4910089;29;20402;-61
2023/07/09 20:20:14;;;;;;;12.68;9.30;;;;;;;21.34;89.86;101876.63;4910921;29;20036;-61
2023/07/09 20:26:24;;;;;;;13.25;9.57;;;;;;;21.29;89.57;101878.44;4836215;29;20431;-61
2023/07/09 20:28:50;;;;;;;13.35;10.10;;;;;;;21.22;90.24;101883.75;4910142;29;20501;-61
2023/07/09 20:31:24;;;;;;;13.68;10.48;;;;;;;21.17;90.10;101891.72;4902015;29;20038;-61
2023/07/09 20:33:59;;;;;;;15.63;10.07;;;;;;;21.14;90.41;101895.25;4909823;29;20040;-61
2023/07/09 20:36:24;;;;;;;13.70;9.25;;;;;;;21.17;90.40;101897.03;4911943;29;20024;-61
2023/07/09 20:38:49;;;;;;;15.80;11.00;;;;;;;21.19;90.38;101895.28;4913627;29;20016;-61
2023/07/09 20:41:18;;;;;;;12.38;9.70;;;;;;;21.24;90.63;101897.91;4912085;29;20103;-61
2023/07/09 20:43:44;;;;;;;15.57;11.13;;;;;;;21.26;90.42;101904.97;4913478;29;20012;-61
2023/07/09 20:46:10;;;;;;;13.45;9.55;;;;;;;21.27;90.32;101896.09;4895267;29;20020;-62
2023/07/09 20:48:36;;;;;;;14.32;10.13;;;;;;;21.29;90.59;101904.94;4896633;29;20046;-61
2023/07/09 20:51:01;;;;;;;15.27;10.68;;;;;;;21.28;89.95;101900.53;4913597;29;20032;-61
2023/07/09 20:53:26;;;;;;;15.82;9.70;;;;;;;21.27;90.05;101904.06;4912154;29;20501;-61
2023/07/09 20:55:57;;;;;;;14.80;9.90;;;;;;;21.17;90.03;101900.59;4911394;29;20028;-61
2023/07/09 20:58:24;;;;;;;13.48;9.13;;;;;;;21.10;90.47;101905.88;4906421;29;20024;-61
2023/07/09 21:00:52;;;;;;;13.82;9.43;;;;;;;21.09;90.28;101904.16;4913559;29;20083;-61
2023/07/09 21:03:26;;;;;;;12.68;9.48;;;;;;;21.04;90.65;101901.47;4913511;29;20077;-61
2023/07/09 21:05:52;;;;;;;16.60;9.93;;;;;;;20.98;91.66;101910.31;4917305;29;20095;-61
2023/07/09 21:08:26;;;;;;;12.73;9.45;;;;;;;20.91;90.92;101911.22;4911677;29;20636;-61
2023/07/09 21:10:52;;;;;;;15.50;9.40;;;;;;;20.83;91.12;101913.03;4915760;29;20040;-61
2023/07/09 21:13:21;;;;;;;14.52;9.13;;;;;;;20.77;90.86;101916.56;4915917;29;20042;-61
2023/07/09 21:15:52;;;;;;;13.77;9.73;;;;;;;20.67;90.69;101905.09;4910738;29;20031;-61
2023/07/09 21:18:19;;;;;;;15.00;9.55;;;;;;;20.61;90.54;101902.44;4916738;29;20039;-61
2023/07/09 21:20:45;;;;;;;15.27;9.40;;;;;;;20.56;90.00;101890.94;4917054;29;20048;-61
2023/07/09 21:23:16;;;;;;;13.35;9.43;;;;;;;20.50;90.70;101909.50;4911780;29;20052;-61
2023/07/09 21:25:41;;;;;;;14.15;9.55;;;;;;;20.43;90.39;101898.03;4916196;29;20032;-61
2023/07/09 21:28:06;;;;;;;15.80;10.48;;;;;;;20.46;89.43;101891.84;4907549;29;20038;-61
2023/07/09 21:30:32;;;;;;;13.80;9.75;;;;;;;20.39;89.70;101888.34;4903161;29;20394;-61
2023/07/09 21:32:57;;;;;;;15.98;10.32;;;;;;;20.37;90.14;101887.44;4900585;29;20031;-61
2023/07/09 21:35:25;;;;;;;16.50;10.00;;;;;;;20.33;89.71;101897.16;4903577;29;20024;-61
2023/07/09 21:37:52;;;;;;;12.98;8.85;;;;;;;20.29;90.06;101892.75;4902193;29;20059;-61
2023/07/09 21:40:25;;;;;;;14.48;8.95;;;;;;;20.34;89.24;101879.50;4903487;29;20033;-61
2023/07/09 21:42:52;;;;;;;14.38;9.38;;;;;;;20.32;89.35;101884.81;4911664;29;20044;-61
2023/07/09 21:45:18;;;;;;;18.63;9.27;;;;;;;20.31;89.88;101898.91;4903268;29;20036;-61
2023/07/09 21:47:44;;;;;;;14.63;8.50;;;;;;;20.31;89.26;101888.31;4909710;29;20571;-61
2023/07/09 21:50:14;;;;;;;14.52;8.43;;;;;;;20.37;89.66;101886.56;4912753;29;20028;-61
2023/07/09 21:52:46;;;;;;;14.07;9.57;;;;;;;20.39;89.16;101892.72;4915991;29;20038;-61
2023/07/09 21:55:29;;;;;;;13.65;9.18;;;;;;;20.31;89.18;101898.91;4892094;29;20044;-61
2023/07/09 21:57:55;;;;;;;14.10;9.30;;;;;;;20.26;89.86;101906.00;4908406;29;20495;-61
2023/07/09 22:00:27;;;;;;;13.27;9.32;;;;;;;20.27;90.12;101902.44;4911148;29;20438;-60
2023/07/09 22:02:54;;;;;;;13.85;8.90;;;;;;;20.31;89.45;101905.97;4895989;29;20025;-61
2023/07/09 22:05:28;;;;;;;12.68;8.60;;;;;;;20.33;89.43;101906.84;4910890;29;20028;-61
2023/07/09 22:07:55;;;;;;;13.52;8.65;;;;;;;20.32;89.03;101913.06;4912453;29;20032;-60
2023/07/09 22:10:28;;;;;;;14.82;9.13;;;;;;;20.27;89.43;101918.31;4910055;29;20067;-61
2023/07/09 22:12:56;;;;;;;13.98;9.38;;;;;;;20.24;89.71;101917.44;4907143;29;20040;-61
2023/07/09 22:15:27;;;;;;;13.82;9.38;;;;;;;20.19;90.04;101920.09;4908817;29;20036;-61
2023/07/09 22:17:54;;;;;;;16.35;9.70;;;;;;;20.10;89.99;101926.25;4905314;29;20443;-61
2023/07/09 22:20:24;;;;;;;15.65;8.43;;;;;;;20.03;90.00;101924.50;4903067;29;20025;-61
2023/07/09 22:22:49;;;;;;;14.48;8.13;;;;;;;19.98;89.93;101927.09;4904050;29;20141;-61
2023/07/09 22:25:23;;;;;;;14.05;8.32;;;;;;;19.94;90.21;101925.34;4914154;29;20176;-60
2023/07/09 22:27:49;;;;;;;12.73;7.40;;;;;;;19.87;89.62;101931.50;4903046;29;20067;-61
2023/07/09 22:30:16;;;;;;;10.43;5.78;;;;;;;19.82;88.41;101935.88;4909420;29;20051;-60
2023/07/09 22:32:46;;;;;;;9.82;5.68;;;;;;;19.73;88.12;101927.91;4908786;29;20534;-60
2023/07/09 22:35:14;;;;;;;8.65;5.55;;;;;;;19.65;88.03;101922.56;4915073;29;20039;-60
2023/07/09 22:37:41;;;;;;;11.32;5.82;;;;;;;19.61;86.69;101921.69;4904632;29;20028;-61
2023/07/09 22:40:13;;;;;;;9.43;4.85;;;;;;;19.53;87.30;101927.84;4913663;29;20038;-60
2023/07/09 22:42:38;;;;;;;9.00;5.18;;;;;;;19.47;87.10;101928.69;4910445;29;20029;-60
2023/07/09 22:45:04;;;;;;;9.98;4.65;;;;;;;19.40;86.61;101930.41;4915975;29;20036;-60
2023/07/09 22:47:30;;;;;;;9.18;4.43;;;;;;;19.37;86.16;101917.19;4916396;29;20045;-60
2023/07/09 22:49:55;;;;;;;11.20;4.50;;;;;;;19.36;86.07;101925.13;4916177;29;20442;-60
2023/07/09 22:52:21;;;;;;;9.32;4.38;;;;;;;19.36;85.69;101936.56;4916093;29;20052;-60
2023/07/09 22:54:46;;;;;;;10.48;4.85;;;;;;;19.34;85.63;101938.31;4916011;29;20542;-60
2023/07/09 22:57:11;;;;;;;9.93;4.57;;;;;;;19.30;86.09;101936.53;4903714;29;20031;-60
2023/07/09 22:59:37;;;;;;;9.90;4.38;;;;;;;19.32;86.07;101937.44;4915635;29;20023;-60
2023/07/09 23:02:02;;;;;;;8.43;4.10;;;;;;;19.35;85.95;101942.75;4915970;29;20036;-60
2023/07/09 23:04:28;;;;;;;10.02;4.32;;;;;;;19.34;85.84;101942.75;4916058;29;20084;-60
2023/07/09 23:06:53;;;;;;;9.32;4.13;;;;;;;19.33;84.94;101951.53;4915608;29;20490;-60
2023/07/09 23:09:19;;;;;;;9.25;3.80;;;;;;;19.31;84.29;101963.88;4915740;29;20048;-60
2023/07/09 23:11:44;;;;;;;9.15;4.25;;;;;;;19.28;84.02;101962.97;4915536;29;20084;-60
2023/07/09 23:14:17;;;;;;;10.18;4.40;;;;;;;19.24;83.81;101970.88;4913101;29;20032;-60
2023/07/09 23:16:44;;;;;;;11.02;4.00;;;;;;;19.21;83.39;101955.88;4911597;29;20486;-61
2023/07/09 23:19:25;;;;;;;8.57;4.15;;;;;;;19.18;83.52;101958.50;4908263;29;20104;-60
2023/07/09 23:21:51;;;;;;;8.77;4.00;;;;;;;19.15;82.40;101947.94;4907769;29;20032;-60
2023/07/09 23:24:17;;;;;;;8.82;3.45;;;;;;;19.09;82.78;101953.19;4904114;29;20652;-60
2023/07/09 23:26:46;;;;;;;10.25;4.25;;;;;;;19.04;82.83;101950.47;4912528;29;20427;-61
2023/07/09 23:29:13;;;;;;;8.93;3.72;;;;;;;19.03;83.36;101954.03;4914688;29;20131;-60
2023/07/09 23:31:41;;;;;;;7.32;4.00;;;;;;;19.03;83.82;101954.03;4914164;29;20036;-60
2023/07/09 23:34:10;;;;;;;9.02;3.95;;;;;;;19.04;83.46;101955.75;4911642;29;20024;-61
2023/07/09 23:36:36;;;;;;;;;;;;;;;19.06;83.17;101950.50;4890481;29;20036;-60
2023/07/09 23:39:04;;;;;;;8.82;3.25;;;;;;;19.05;83.84;101946.97;4896048;29;19919;-60
2023/07/09 23:41:32;;;;;;;6.50;3.60;;;;;;;19.10;83.62;101947.00;4913214;29;20511;-60
2023/07/09 23:43:59;;;;;;;9.52;3.95;;;;;;;19.08;83.07;101946.13;4902232;29;20040;-60
2023/07/09 23:46:34;;;;;;;6.57;3.60;;;;;;;19.03;83.28;101935.53;4909955;29;20039;-60
2023/07/09 23:49:00;;;;;;;8.98;3.67;;;;;;;19.01;83.69;101937.25;4912588;29;20035;-60
2023/07/09 23:51:26;;;;;;;10.73;3.92;;;;;;;18.99;83.41;101938.13;4913065;29;20032;-60
2023/07/09 23:53:51;;;;;;;9.02;3.92;;;;;;;18.98;83.32;101934.59;4913207;29;20364;-60
2023/07/09 23:56:32;;;;;;;8.25;3.55;;;;;;;18.99;83.56;101930.19;4902311;29;20164;-60
2023/07/09 23:58:59;;;;;;;8.07;3.60;;;;;;;19.00;83.44;101937.25;4912453;29;20039;-60
